Hovedside
METAR-TAF:

METAR-TAF

Lufthavner :

Sandnessjøen lufthavn. Stokka

Sandnessjøen, Norge

breddegrad: 65-58N, lengdegrad: 012-28E, høyde over havet: 1 m

Gjeldene værobservasjon

Denne rapporten ble laget for 15 minutter siden, klokken 13:20 UTC
Vind 20 kt fra Sør-sørøst med vindkast opp mot 48 kt, skiftende mellom Øst-sørøst og Sør
Temperatur 6°C
Luftfuktighet 65%
Trykk 1008 hPa
Sikt 10 km eller mer
Få skyer i en høyde av 1500 ft
Brutte skyer i en høyde av 3000 ft
lett regn

METAR: ENST 221320Z 16020G48KT 110V190 9999 -RA FEW015 BKN030 06/M00 Q1008 RMK WIND 300FT 14030G52KT TURB WRNG - SEE IPPC

Tid: 14:35 (13:35 UTC)


TAF: fraværende

Værobservasjoner og værvarsel for over 4000 flyplasser (METAR- og TAF-rapporter).

Tilgjengelige stasjoner er representert av de røde og gule prikkene på kartet.

Hold musepekeren over prikken for å se navnet på stasjonen.

Klikk så for å se værobservasjoner og -varsler.

For å forandre kartet kan du klikke på den grønne knappen med svart kryss for å zoome inn, på den grønne knappen med strek for å zoome ut, eller på de grønne pilene for å se tilstøtende kart.


METAR-TAF: